North West River, Canada
Current Conditions -  °F | °C
As of 11:00 AM on Friday 31 Oct 2014 (Local Time) from CYYR Reporting Station
Broken Clouds Broken Clouds  
Wind Chill: 25°   Ceiling: 4200
Heat Index: 36°   Visibility: 15mi
Dew Point: 21°   Wind: 18mph
Humidity: 56%   Direction: 260°W
Pressure: 29.79"   Gusts: 30mph
Location:  53.53°N, 60.15°W
Report Text: CYYR 311400Z 26016G26KT 15SM BKN042 02/M06 A2979 RMK SC4 SLP092
Loading
Personal Weather Stations






























Interactive Weather Map
Tropical Storm Tracking
New forecast layout! Learn more

10-Day Weather Forecast

Advertisements
Track Severe Weather on mobile